Time;durP1;ratioP1;P1;durP2;ratioP2;P2;SDS_P1;SDS_P2;PMS_P1;PMS_P2;Temp;Humidity;BMP_temperature;BMP_pressure;BME280_temperature;BME280_humidity;BME280_pressure;Samples;Min_cycle;Max_cycle;Signal;HPM_P1;HPM_P2
2023/03/11 00:01:07;;;;;;;29.77;17.60;;;;;;;;;;5055618;28;20402;-71
2023/03/11 00:03:33;;;;;;;28.83;17.15;;;;;;;;;;5054304;28;20495;-71
2023/03/11 00:06:00;;;;;;;33.90;18.00;;;;;;;;;;5054467;28;20059;-71
2023/03/11 00:08:27;;;;;;;28.30;17.80;;;;;;;;;;5054473;28;20486;-72
2023/03/11 00:10:59;;;;;;;29.65;18.30;;;;;;;;;;5054395;28;20025;-72
2023/03/11 00:13:25;;;;;;;29.00;18.08;;;;;;;;;;5054261;28;20540;-74
2023/03/11 00:15:54;;;;;;;29.92;18.80;;;;;;;;;;5054387;28;20498;-71
2023/03/11 00:18:24;;;;;;;33.38;20.33;;;;;;;;;;5054264;28;20112;-72
2023/03/11 00:20:50;;;;;;;34.53;21.27;;;;;;;;;;5054017;28;20029;-72
2023/03/11 00:23:16;;;;;;;33.88;21.17;;;;;;;;;;5053814;28;20086;-73
2023/03/11 00:25:44;;;;;;;30.65;19.45;;;;;;;;;;5054075;28;20028;-72
2023/03/11 00:28:10;;;;;;;34.08;21.15;;;;;;;;;;5054172;28;20029;-73
2023/03/11 00:30:36;;;;;;;35.22;21.13;;;;;;;;;;5054463;28;20035;-72
2023/03/11 00:33:02;;;;;;;30.95;20.30;;;;;;;;;;5053638;28;20025;-72
2023/03/11 00:35:30;;;;;;;35.22;21.77;;;;;;;;;;5053814;28;20032;-72
2023/03/11 00:38:00;;;;;;;31.92;21.70;;;;;;;;;;5054279;28;20024;-73
2023/03/11 00:40:28;;;;;;;33.50;20.42;;;;;;;;;;5054041;28;20029;-72
2023/03/11 00:42:54;;;;;;;33.83;21.33;;;;;;;;;;5053753;28;20367;-72
2023/03/11 00:45:20;;;;;;;34.45;22.48;;;;;;;;;;5053660;28;20051;-72
2023/03/11 00:47:47;;;;;;;35.20;22.65;;;;;;;;;;5053861;28;20049;-71
2023/03/11 00:50:16;;;;;;;46.05;25.10;;;;;;;;;;5053842;28;20533;-71
2023/03/11 00:52:43;;;;;;;36.70;22.08;;;;;;;;;;5053369;28;20031;-71
2023/03/11 00:55:10;;;;;;;32.72;21.40;;;;;;;;;;5053557;28;20413;-72
2023/03/11 00:57:36;;;;;;;35.45;21.88;;;;;;;;;;5053493;28;20021;-72
2023/03/11 01:00:03;;;;;;;34.15;22.17;;;;;;;;;;5053632;28;20021;-75
2023/03/11 01:02:29;;;;;;;34.22;21.08;;;;;;;;;;5046855;28;20025;-73
2023/03/11 01:04:55;;;;;;;37.85;21.60;;;;;;;;;;5053249;28;20021;-71
2023/03/11 01:07:21;;;;;;;34.67;20.38;;;;;;;;;;5052139;28;20036;-72
2023/03/11 01:09:47;;;;;;;39.33;21.25;;;;;;;;;;5053500;28;20036;-73
2023/03/11 01:12:13;;;;;;;32.67;22.17;;;;;;;;;;5053056;28;20025;-73
2023/03/11 01:14:39;;;;;;;32.40;19.85;;;;;;;;;;5053087;28;20075;-73
2023/03/11 01:17:05;;;;;;;34.78;21.27;;;;;;;;;;5053087;28;20021;-72
2023/03/11 01:19:31;;;;;;;30.90;20.13;;;;;;;;;;5053165;28;20028;-72
2023/03/11 01:21:57;;;;;;;41.83;21.27;;;;;;;;;;5052902;28;20105;-71
2023/03/11 01:24:23;;;;;;;30.33;19.83;;;;;;;;;;5053074;28;20074;-73
2023/03/11 01:26:49;;;;;;;30.48;19.42;;;;;;;;;;5051637;28;20025;-71
2023/03/11 01:29:15;;;;;;;32.05;20.25;;;;;;;;;;5053298;28;20047;-73
2023/03/11 01:31:41;;;;;;;31.65;19.95;;;;;;;;;;5052936;28;20025;-73
2023/03/11 01:34:07;;;;;;;33.75;19.27;;;;;;;;;;5052899;28;20099;-73
2023/03/11 01:36:33;;;;;;;32.45;19.42;;;;;;;;;;5052648;28;20379;-71
2023/03/11 01:38:59;;;;;;;31.75;19.70;;;;;;;;;;5052770;28;20032;-72
2023/03/11 01:41:25;;;;;;;29.60;19.27;;;;;;;;;;5052765;28;20462;-71
2023/03/11 01:43:53;;;;;;;31.55;19.23;;;;;;;;;;5052171;28;20033;-72
2023/03/11 01:46:19;;;;;;;29.30;18.27;;;;;;;;;;5052486;28;20048;-72
2023/03/11 01:48:46;;;;;;;28.33;18.60;;;;;;;;;;5052615;28;20467;-73
2023/03/11 01:51:13;;;;;;;35.30;18.98;;;;;;;;;;5052431;28;20538;-73
2023/03/11 01:53:39;;;;;;;31.77;18.85;;;;;;;;;;5052399;28;20078;-71
2023/03/11 01:56:05;;;;;;;33.33;19.27;;;;;;;;;;5052313;28;20025;-72
2023/03/11 01:58:33;;;;;;;31.85;18.88;;;;;;;;;;5052380;28;20079;-71
2023/03/11 02:00:59;;;;;;;29.73;17.55;;;;;;;;;;5052476;28;20047;-72
2023/03/11 02:03:28;;;;;;;32.47;18.52;;;;;;;;;;5052701;28;20483;-72
2023/03/11 02:05:55;;;;;;;34.08;20.10;;;;;;;;;;5052205;28;20538;-73
2023/03/11 02:08:21;;;;;;;27.77;19.42;;;;;;;;;;5052256;28;20478;-73
2023/03/11 02:10:48;;;;;;;31.73;19.38;;;;;;;;;;5052185;28;20074;-72
2023/03/11 02:13:14;;;;;;;29.00;19.60;;;;;;;;;;5051899;28;20391;-73
2023/03/11 02:15:40;;;;;;;30.17;18.73;;;;;;;;;;5052218;28;20108;-73
2023/03/11 02:18:07;;;;;;;32.10;19.33;;;;;;;;;;5051757;28;20111;-73
2023/03/11 02:20:48;;;;;;;32.97;19.67;;;;;;;;;;5052133;28;20052;-73
2023/03/11 02:23:15;;;;;;;29.77;19.15;;;;;;;;;;5052242;28;20032;-72
2023/03/11 02:25:50;;;;;;;29.13;19.25;;;;;;;;;;5051900;28;20487;-72
2023/03/11 02:28:18;;;;;;;28.52;19.15;;;;;;;;;;5051348;28;20025;-72
2023/03/11 02:30:44;;;;;;;26.50;17.63;;;;;;;;;;5051907;28;20484;-73
2023/03/11 02:33:10;;;;;;;28.98;19.17;;;;;;;;;;5051571;28;20738;-72
2023/03/11 02:35:36;;;;;;;30.48;18.27;;;;;;;;;;5051633;28;20112;-72
2023/03/11 02:38:02;;;;;;;29.63;18.63;;;;;;;;;;5052106;28;20110;-73
2023/03/11 02:40:33;;;;;;;30.02;19.33;;;;;;;;;;5051817;28;20406;-72
2023/03/11 02:43:01;;;;;;;30.17;19.17;;;;;;;;;;5051620;28;20025;-72
2023/03/11 02:45:28;;;;;;;32.60;19.88;;;;;;;;;;5051521;28;20044;-73
2023/03/11 02:47:56;;;;;;;32.78;18.58;;;;;;;;;;5051700;28;20497;-72
2023/03/11 02:50:22;;;;;;;32.03;19.73;;;;;;;;;;5051731;28;20036;-72
2023/03/11 02:52:49;;;;;;;30.27;18.90;;;;;;;;;;5051465;28;20398;-73
2023/03/11 02:55:16;;;;;;;29.20;19.27;;;;;;;;;;5051792;28;20044;-71
2023/03/11 02:57:43;;;;;;;29.20;18.63;;;;;;;;;;5054079;28;20453;-72
2023/03/11 03:00:13;;;;;;;29.85;19.38;;;;;;;;;;5053182;28;20029;-73
2023/03/11 03:02:39;;;;;;;29.15;18.50;;;;;;;;;;5050069;28;20045;-72
2023/03/11 03:05:06;;;;;;;32.60;19.15;;;;;;;;;;5052339;28;20055;-73
2023/03/11 03:07:32;;;;;;;31.52;18.88;;;;;;;;;;5052296;28;20108;-73
2023/03/11 03:09:58;;;;;;;27.98;15.95;;;;;;;;;;5052704;28;20029;-72
2023/03/11 03:12:24;;;;;;;26.75;16.55;;;;;;;;;;5052115;28;20032;-73
2023/03/11 03:14:50;;;;;;;23.73;15.25;;;;;;;;;;5052017;28;20118;-73
2023/03/11 03:17:16;;;;;;;23.38;15.30;;;;;;;;;;5051429;28;20052;-73
2023/03/11 03:19:42;;;;;;;23.60;14.90;;;;;;;;;;5051395;28;20493;-72
2023/03/11 03:22:08;;;;;;;29.90;16.20;;;;;;;;;;5051052;28;20025;-72
2023/03/11 03:24:34;;;;;;;26.58;16.08;;;;;;;;;;5051736;28;20476;-72
2023/03/11 03:27:00;;;;;;;28.70;16.17;;;;;;;;;;5051224;28;20035;-72
2023/03/11 03:29:26;;;;;;;28.73;16.17;;;;;;;;;;5052110;28;20033;-71
2023/03/11 03:31:52;;;;;;;29.25;17.08;;;;;;;;;;5054915;28;20038;-71
2023/03/11 03:34:18;;;;;;;24.88;16.00;;;;;;;;;;5055075;28;20437;-72
2023/03/11 03:36:44;;;;;;;28.00;16.17;;;;;;;;;;5055020;28;20057;-72
2023/03/11 03:39:10;;;;;;;29.40;16.10;;;;;;;;;;5055313;28;20032;-73
2023/03/11 03:41:36;;;;;;;27.17;16.77;;;;;;;;;;5055004;28;20475;-72
2023/03/11 03:44:02;;;;;;;27.42;17.40;;;;;;;;;;5054712;28;20041;-72
2023/03/11 03:46:28;;;;;;;25.38;16.90;;;;;;;;;;5054995;28;20037;-73
2023/03/11 03:48:54;;;;;;;25.85;16.50;;;;;;;;;;5055830;28;20462;-71
2023/03/11 03:51:20;;;;;;;26.33;16.33;;;;;;;;;;5056608;28;20029;-72
2023/03/11 03:53:46;;;;;;;28.55;16.52;;;;;;;;;;5054604;28;20036;-71
2023/03/11 03:56:14;;;;;;;25.40;16.42;;;;;;;;;;5054624;28;20029;-72
2023/03/11 03:58:40;;;;;;;26.10;16.02;;;;;;;;;;5054779;28;20481;-73
2023/03/11 04:01:06;;;;;;;23.63;16.10;;;;;;;;;;5054756;28;20017;-72
2023/03/11 04:03:33;;;;;;;25.58;16.60;;;;;;;;;;5054965;28;20013;-73
2023/03/11 04:06:29;;;;;;;27.80;15.50;;;;;;;;;;5054603;28;20035;-72
2023/03/11 04:08:55;;;;;;;26.95;15.70;;;;;;;;;;5049916;28;20120;-73
2023/03/11 04:11:21;;;;;;;26.80;15.23;;;;;;;;;;5054457;28;20120;-71
2023/03/11 04:13:47;;;;;;;21.98;14.63;;;;;;;;;;5054439;28;20036;-71
2023/03/11 04:16:18;;;;;;;22.95;14.80;;;;;;;;;;5054139;28;20388;-72
2023/03/11 04:18:44;;;;;;;25.13;15.10;;;;;;;;;;5054084;28;20425;-71
2023/03/11 04:21:10;;;;;;;24.95;14.73;;;;;;;;;;5054910;28;20092;-73
2023/03/11 04:23:36;;;;;;;24.90;14.93;;;;;;;;;;5054734;28;20478;-73
2023/03/11 04:26:02;;;;;;;28.42;16.83;;;;;;;;;;5054794;28;20060;-73
2023/03/11 04:28:28;;;;;;;25.08;14.77;;;;;;;;;;5054339;28;20036;-71
2023/03/11 04:30:54;;;;;;;20.55;14.38;;;;;;;;;;5054078;28;20029;-73
2023/03/11 04:33:20;;;;;;;24.15;15.15;;;;;;;;;;5054039;28;20029;-73
2023/03/11 04:35:46;;;;;;;23.83;14.25;;;;;;;;;;5055972;28;20103;-72
2023/03/11 04:38:12;;;;;;;23.27;13.40;;;;;;;;;;5055583;28;20022;-72
2023/03/11 04:40:38;;;;;;;20.77;13.23;;;;;;;;;;5053651;28;20029;-71
2023/03/11 04:43:04;;;;;;;24.98;13.77;;;;;;;;;;5054019;28;20021;-72
2023/03/11 04:45:31;;;;;;;22.17;13.63;;;;;;;;;;5054773;28;20037;-71
2023/03/11 04:47:57;;;;;;;20.83;13.70;;;;;;;;;;5053983;28;20025;-73
2023/03/11 04:50:23;;;;;;;22.25;14.25;;;;;;;;;;5055670;28;20025;-76
2023/03/11 04:52:49;;;;;;;25.38;14.95;;;;;;;;;;5058632;28;20039;-71
2023/03/11 04:55:15;;;;;;;25.05;14.90;;;;;;;;;;5055946;28;20032;-73
2023/03/11 04:57:41;;;;;;;24.10;14.98;;;;;;;;;;5053761;28;20495;-73
2023/03/11 05:00:10;;;;;;;21.27;14.52;;;;;;;;;;5053811;28;20017;-72
2023/03/11 05:02:36;;;;;;;22.23;14.88;;;;;;;;;;5053432;28;20066;-71
2023/03/11 05:05:02;;;;;;;22.83;14.70;;;;;;;;;;5053893;28;20111;-73
2023/03/11 05:07:28;;;;;;;21.85;14.13;;;;;;;;;;5052565;28;20047;-72
2023/03/11 05:09:54;;;;;;;23.77;13.82;;;;;;;;;;5053776;28;20471;-72
2023/03/11 05:12:20;;;;;;;27.15;14.70;;;;;;;;;;5053262;28;20040;-72
2023/03/11 05:14:46;;;;;;;22.48;14.35;;;;;;;;;;5053472;28;20112;-74
2023/03/11 05:17:13;;;;;;;19.67;13.60;;;;;;;;;;5054151;28;20017;-73
2023/03/11 05:19:39;;;;;;;22.88;13.52;;;;;;;;;;5054132;28;20552;-74
2023/03/11 05:22:06;;;;;;;21.08;13.50;;;;;;;;;;5054022;28;20025;-72
2023/03/11 05:24:32;;;;;;;19.65;12.60;;;;;;;;;;5054135;28;20033;-72
2023/03/11 05:26:58;;;;;;;27.40;15.50;;;;;;;;;;5054484;28;20032;-73
2023/03/11 05:29:25;;;;;;;25.50;14.82;;;;;;;;;;5054378;28;20024;-73
2023/03/11 05:31:51;;;;;;;22.90;14.35;;;;;;;;;;5054555;28;20053;-76
2023/03/11 05:34:17;;;;;;;21.25;13.20;;;;;;;;;;5055080;28;20032;-73
2023/03/11 05:36:43;;;;;;;22.65;14.18;;;;;;;;;;5053039;28;20435;-71
2023/03/11 05:39:09;;;;;;;25.98;12.95;;;;;;;;;;5053080;28;20056;-72
2023/03/11 05:41:36;;;;;;;24.48;13.75;;;;;;;;;;5053020;28;20052;-73
2023/03/11 05:44:02;;;;;;;22.08;13.55;;;;;;;;;;5052657;28;20033;-75
2023/03/11 05:46:28;;;;;;;21.85;13.27;;;;;;;;;;5052959;28;20025;-73
2023/03/11 05:48:54;;;;;;;24.42;14.10;;;;;;;;;;5053156;28;20036;-74
2023/03/11 05:51:20;;;;;;;24.70;14.13;;;;;;;;;;5053210;28;20029;-74
2023/03/11 05:53:47;;;;;;;26.80;14.88;;;;;;;;;;5053021;28;20029;-73
2023/03/11 05:56:16;;;;;;;23.67;13.70;;;;;;;;;;5053331;28;20490;-73
2023/03/11 05:58:42;;;;;;;25.55;15.45;;;;;;;;;;5053622;28;20382;-72
2023/03/11 06:01:09;;;;;;;24.75;14.85;;;;;;;;;;5052828;28;20017;-73
2023/03/11 06:03:36;;;;;;;24.00;13.98;;;;;;;;;;5052519;28;20033;-72
2023/03/11 06:06:02;;;;;;;24.35;14.85;;;;;;;;;;5053151;28;20478;-72
2023/03/11 06:08:29;;;;;;;36.47;20.13;;;;;;;;;;5053182;28;20029;-73
2023/03/11 06:11:00;;;;;;;26.67;15.93;;;;;;;;;;5052617;28;20021;-72
2023/03/11 06:13:26;;;;;;;29.02;15.50;;;;;;;;;;5052315;28;20029;-72
2023/03/11 06:15:52;;;;;;;27.55;14.82;;;;;;;;;;5052218;28;20448;-71
2023/03/11 06:18:18;;;;;;;25.23;15.68;;;;;;;;;;5052246;28;20028;-73
2023/03/11 06:20:44;;;;;;;23.67;14.93;;;;;;;;;;5052306;28;20021;-73
2023/03/11 06:23:10;;;;;;;29.70;15.82;;;;;;;;;;5051785;28;20021;-73
2023/03/11 06:25:36;;;;;;;25.63;15.30;;;;;;;;;;5052151;28;20375;-74
2023/03/11 06:28:02;;;;;;;27.42;16.25;;;;;;;;;;5052107;28;20029;-76
2023/03/11 06:30:28;;;;;;;29.15;15.90;;;;;;;;;;5052787;28;20127;-75
2023/03/11 06:32:54;;;;;;;25.75;15.60;;;;;;;;;;5052261;28;20107;-75
2023/03/11 06:35:21;;;;;;;23.85;15.27;;;;;;;;;;5052708;28;20498;-73
2023/03/11 06:37:47;;;;;;;26.85;15.85;;;;;;;;;;5052177;28;20441;-73
2023/03/11 06:40:13;;;;;;;29.15;15.73;;;;;;;;;;5047031;28;20378;-73
2023/03/11 06:42:39;;;;;;;25.98;14.85;;;;;;;;;;5051224;28;20032;-73
2023/03/11 06:45:05;;;;;;;27.58;15.65;;;;;;;;;;5051584;28;20090;-73
2023/03/11 06:47:31;;;;;;;26.63;14.13;;;;;;;;;;5048131;28;20106;-73
2023/03/11 06:49:57;;;;;;;24.35;14.38;;;;;;;;;;5051856;28;20466;-73
2023/03/11 06:52:23;;;;;;;24.85;14.57;;;;;;;;;;5048906;28;20079;-72
2023/03/11 06:54:49;;;;;;;23.55;14.30;;;;;;;;;;5051469;28;20029;-71
2023/03/11 06:57:16;;;;;;;33.53;18.80;;;;;;;;;;5051169;28;20024;-71
2023/03/11 06:59:42;;;;;;;26.17;13.55;;;;;;;;;;5049345;28;20033;-72
2023/03/11 07:02:11;;;;;;;24.95;14.32;;;;;;;;;;5050986;28;20017;-72
2023/03/11 07:04:37;;;;;;;24.30;14.25;;;;;;;;;;5054253;28;20115;-71
2023/03/11 07:07:03;;;;;;;22.38;13.77;;;;;;;;;;5055579;28;20100;-73
2023/03/11 07:09:29;;;;;;;23.75;13.93;;;;;;;;;;5055832;28;20033;-75
2023/03/11 07:11:55;;;;;;;21.98;13.95;;;;;;;;;;5055589;28;20060;-74
2023/03/11 07:14:22;;;;;;;24.02;13.90;;;;;;;;;;5056177;28;20068;-71
2023/03/11 07:16:48;;;;;;;21.77;13.30;;;;;;;;;;5055671;28;20029;-72
2023/03/11 07:19:14;;;;;;;24.85;14.10;;;;;;;;;;5055517;28;20024;-73
2023/03/11 07:21:40;;;;;;;24.65;12.65;;;;;;;;;;5055618;28;20390;-72
2023/03/11 07:24:06;;;;;;;24.17;13.43;;;;;;;;;;5055338;28;20098;-75
2023/03/11 07:26:33;;;;;;;23.55;13.43;;;;;;;;;;5057131;28;20041;-74
2023/03/11 07:28:59;;;;;;;21.90;12.65;;;;;;;;;;5056488;28;20096;-74
2023/03/11 07:31:27;;;;;;;22.17;14.23;;;;;;;;;;5055788;28;20039;-73
2023/03/11 07:33:53;;;;;;;24.60;13.65;;;;;;;;;;5055024;28;20029;-71
2023/03/11 07:36:21;;;;;;;22.67;13.23;;;;;;;;;;5055181;28;20078;-71
2023/03/11 07:38:47;;;;;;;25.27;12.18;;;;;;;;;;5055444;28;20025;-72
2023/03/11 07:41:14;;;;;;;22.73;12.65;;;;;;;;;;5055121;28;20055;-72
2023/03/11 07:43:41;;;;;;;23.23;12.13;;;;;;;;;;5054803;28;20025;-72
2023/03/11 07:46:08;;;;;;;18.67;11.60;;;;;;;;;;5055044;28;20032;-72
2023/03/11 07:48:35;;;;;;;20.98;11.75;;;;;;;;;;5054975;28;20088;-72
2023/03/11 07:51:01;;;;;;;19.48;11.23;;;;;;;;;;5054928;28;20127;-71
2023/03/11 07:53:27;;;;;;;18.70;11.23;;;;;;;;;;5054903;28;20478;-73
2023/03/11 07:55:57;;;;;;;21.33;11.13;;;;;;;;;;5057105;28;20028;-76
2023/03/11 07:58:23;;;;;;;22.90;12.18;;;;;;;;;;5055712;28;20475;-73
2023/03/11 08:00:49;;;;;;;22.30;10.70;;;;;;;;;;5056239;28;20033;-79
2023/03/11 08:03:15;;;;;;;20.13;11.73;;;;;;;;;;5055347;28;20021;-72
2023/03/11 08:05:42;;;;;;;17.98;10.60;;;;;;;;;;5054972;28;20059;-78
2023/03/11 08:08:08;;;;;;;18.88;10.18;;;;;;;;;;5054711;28;20755;-73
2023/03/11 08:10:38;;;;;;;16.05;9.50;;;;;;;;;;5054549;28;20028;-75
2023/03/11 08:13:04;;;;;;;22.90;10.30;;;;;;;;;;5054651;28;20032;-76
2023/03/11 08:15:30;;;;;;;15.35;7.93;;;;;;;;;;5054651;28;20386;-75
2023/03/11 08:17:56;;;;;;;14.38;8.57;;;;;;;;;;5066881;28;20020;-74
2023/03/11 08:20:22;;;;;;;15.18;8.13;;;;;;;;;;5076282;28;20036;-73
2023/03/11 08:22:47;;;;;;;12.07;8.32;;;;;;;;;;5066552;28;20104;-72
2023/03/11 08:25:13;;;;;;;14.23;8.48;;;;;;;;;;5060817;28;20141;-71
2023/03/11 08:27:40;;;;;;;13.90;8.38;;;;;;;;;;5056493;28;20077;-72
2023/03/11 08:30:07;;;;;;;15.68;8.45;;;;;;;;;;5054657;28;20079;-74
2023/03/11 08:32:33;;;;;;;13.65;8.30;;;;;;;;;;5053858;28;20036;-72
2023/03/11 08:34:59;;;;;;;13.82;7.78;;;;;;;;;;5053886;28;20040;-71
2023/03/11 08:37:25;;;;;;;15.02;8.18;;;;;;;;;;5053845;28;20463;-73
2023/03/11 08:39:51;;;;;;;12.43;7.30;;;;;;;;;;5054408;28;20528;-77
2023/03/11 08:42:18;;;;;;;16.00;7.78;;;;;;;;;;5054305;28;20026;-76
2023/03/11 08:44:44;;;;;;;15.50;7.20;;;;;;;;;;5054131;28;20025;-76
2023/03/11 08:47:10;;;;;;;15.68;7.05;;;;;;;;;;5054640;28;20040;-73
2023/03/11 08:49:37;;;;;;;14.05;7.50;;;;;;;;;;5054713;28;20025;-75
2023/03/11 08:52:03;;;;;;;13.80;6.43;;;;;;;;;;5053673;28;20033;-74
2023/03/11 08:54:29;;;;;;;13.10;6.43;;;;;;;;;;5053469;28;20437;-73
2023/03/11 08:56:55;;;;;;;14.38;5.80;;;;;;;;;;5053868;28;20425;-71
2023/03/11 08:59:21;;;;;;;16.10;6.38;;;;;;;;;;5054904;28;20060;-73
2023/03/11 09:01:47;;;;;;;12.20;5.93;;;;;;;;;;5053479;28;20025;-73
2023/03/11 09:04:13;;;;;;;6.82;4.40;;;;;;;;;;5054399;28;20024;-79
2023/03/11 09:06:42;;;;;;;12.50;4.45;;;;;;;;;;5054520;28;20032;-74
2023/03/11 09:09:09;;;;;;;10.43;4.63;;;;;;;;;;5053602;28;20047;-73
2023/03/11 09:11:36;;;;;;;10.43;4.43;;;;;;;;;;5053251;28;20028;-75
2023/03/11 09:14:02;;;;;;;13.15;4.43;;;;;;;;;;5053252;28;20017;-75
2023/03/11 09:16:28;;;;;;;12.15;4.90;;;;;;;;;;5053303;28;20052;-75
2023/03/11 09:18:54;;;;;;;7.60;3.75;;;;;;;;;;5053111;28;20083;-74
2023/03/11 09:21:21;;;;;;;10.68;4.38;;;;;;;;;;5053234;28;20032;-74
2023/03/11 09:23:47;;;;;;;8.80;3.83;;;;;;;;;;5053168;28;20083;-73
2023/03/11 09:26:14;;;;;;;6.75;3.92;;;;;;;;;;5053096;28;20032;-72
2023/03/11 09:28:40;;;;;;;14.48;3.92;;;;;;;;;;5054686;28;20112;-75
2023/03/11 09:31:06;;;;;;;8.35;3.78;;;;;;;;;;5055917;28;20036;-76
2023/03/11 09:33:36;;;;;;;8.48;3.40;;;;;;;;;;5053112;28;20104;-73
2023/03/11 09:36:01;;;;;;;6.90;3.47;;;;;;;;;;5052707;28;20048;-72
2023/03/11 09:38:27;;;;;;;10.05;3.38;;;;;;;;;;5052592;28;20378;-72
2023/03/11 09:40:56;;;;;;;8.68;3.30;;;;;;;;;;5052367;28;20099;-73
2023/03/11 09:43:30;;;;;;;11.82;3.30;;;;;;;;;;5052341;28;20475;-72
2023/03/11 09:46:04;;;;;;;6.90;2.88;;;;;;;;;;5052630;28;20502;-73
2023/03/11 09:48:37;;;;;;;14.45;3.78;;;;;;;;;;5052926;28;20086;-73
2023/03/11 09:51:08;;;;;;;8.93;3.03;;;;;;;;;;5052366;28;20028;-72
2023/03/11 09:53:40;;;;;;;13.95;2.97;;;;;;;;;;5052145;28;20598;-73
2023/03/11 09:56:07;;;;;;;6.70;2.67;;;;;;;;;;5052238;28;20037;-73
2023/03/11 09:58:51;;;;;;;6.45;3.08;;;;;;;;;;5052930;28;20021;-75
2023/03/11 10:01:18;;;;;;;7.07;3.10;;;;;;;;;;5052546;28;20017;-73
2023/03/11 10:03:44;;;;;;;10.82;2.78;;;;;;;;;;5052646;28;20079;-74
2023/03/11 10:06:19;;;;;;;6.55;2.92;;;;;;;;;;5052714;28;20035;-77
2023/03/11 10:08:47;;;;;;;5.93;2.80;;;;;;;;;;5053093;28;20080;-74
2023/03/11 10:11:16;;;;;;;7.32;2.60;;;;;;;;;;5052931;28;20029;-72
2023/03/11 10:14:02;;;;;;;5.05;2.88;;;;;;;;;;5053319;28;20108;-73
2023/03/11 10:16:31;;;;;;;7.22;3.50;;;;;;;;;;5052476;28;20100;-73
2023/03/11 10:19:16;;;;;;;5.82;2.45;;;;;;;;;;5052045;28;20108;-72
2023/03/11 10:22:00;;;;;;;5.03;2.28;;;;;;;;;;5052233;28;20033;-73
2023/03/11 10:24:46;;;;;;;5.90;2.50;;;;;;;;;;5051943;28;20072;-73
2023/03/11 10:27:15;;;;;;;6.75;2.05;;;;;;;;;;5040910;28;20060;-74
2023/03/11 10:30:01;;;;;;;6.47;2.40;;;;;;;;;;5051855;28;20028;-73
2023/03/11 10:32:27;;;;;;;6.55;2.10;;;;;;;;;;5048525;28;20033;-73
2023/03/11 10:35:03;;;;;;;8.38;2.28;;;;;;;;;;5052638;28;20040;-73
2023/03/11 10:37:32;;;;;;;6.05;2.20;;;;;;;;;;5052151;28;20492;-73
2023/03/11 10:40:04;;;;;;;8.05;2.65;;;;;;;;;;5051946;28;20128;-74
2023/03/11 10:42:32;;;;;;;6.10;2.13;;;20.00;1.00;;;;;;5051545;28;20023;-72
2023/03/11 10:44:58;;;;;;;5.65;2.58;;;22.10;99.90;;;;;;5051572;28;20036;-73
2023/03/11 10:47:24;;;;;;;8.90;3.30;;;21.10;99.90;;;;;;5051778;28;20079;-72
2023/03/11 10:49:51;;;;;;;7.28;2.78;;;21.60;99.90;;;;;;5051745;28;20029;-73
2023/03/11 10:52:17;;;;;;;5.63;2.55;;;22.20;99.90;;;;;;5051393;28;20391;-75
2023/03/11 10:54:46;;;;;;;7.35;2.63;;;22.60;99.90;;;;;;5052252;28;20372;-75
2023/03/11 10:57:20;;;;;;;10.80;2.35;;;22.20;99.90;;;;;;5051527;28;20027;-73
2023/03/11 10:59:49;;;;;;;6.03;2.63;;;22.10;99.90;;;;;;5051700;28;20021;-73
2023/03/11 11:02:28;;;;;;;7.97;2.17;;;22.30;99.90;;;;;;5051356;28;20025;-73
2023/03/11 11:05:31;;;;;;;10.27;3.28;;;22.80;99.90;;;;;;5051638;28;20113;-74
2023/03/11 11:08:06;;;;;;;7.75;2.33;;;22.20;99.90;;;;;;5051336;28;20497;-75
2023/03/11 11:10:33;;;;;;;6.25;2.20;;;22.80;99.90;;;;;;5051403;28;20501;-74
2023/03/11 11:13:07;;;;;;;8.50;2.47;;;22.80;99.90;;;;;;5051076;28;20029;-73
2023/03/11 11:15:40;;;;;;;8.90;2.78;;;23.50;99.90;;;;;;5051483;28;20025;-73
2023/03/11 11:18:16;;;;;;;5.88;2.22;;;23.80;99.90;;;;;;5052147;28;20033;-73
2023/03/11 11:21:14;;;;;;;9.30;2.67;;;24.20;99.90;;;;;;5051604;28;20024;-75
2023/03/11 11:23:41;;;;;;;7.95;2.67;;;24.60;99.90;;;;;;5051230;28;20032;-72
2023/03/11 11:26:19;;;;;;;12.75;2.90;;;24.70;99.90;;;;;;5051179;28;20398;-72
2023/03/11 11:28:45;;;;;;;9.25;2.90;;;24.00;99.90;;;;;;5051647;28;20029;-72
2023/03/11 11:31:24;;;;;;;9.25;2.92;;;24.10;99.90;;;;;;5051304;28;20493;-73
2023/03/11 11:33:55;;;;;;;7.70;2.10;;;24.50;99.90;;;;;;5051291;28;20036;-72
2023/03/11 11:36:34;;;;;;;8.20;2.22;;;23.90;99.90;;;;;;5051315;28;20029;-73
2023/03/11 11:39:03;;;;;;;10.90;3.28;;;23.20;99.90;;;;;;5051401;28;20562;-74
2023/03/11 11:41:32;;;;;;;7.03;2.08;;;23.70;99.90;;;;;;5051436;28;20553;-75
2023/03/11 11:44:05;;;;;;;9.68;2.40;;;24.40;99.90;;;;;;5051179;28;20454;-74
2023/03/11 11:46:56;;;;;;;12.13;2.47;;;24.80;99.90;;;;;;5051487;28;20032;-75
2023/03/11 11:49:27;;;;;;;8.73;1.83;;;25.10;99.90;;;;;;5048480;28;20489;-74
2023/03/11 11:52:15;;;;;;;8.82;3.33;;;25.50;99.90;;;;;;5053739;28;20025;-73
2023/03/11 11:55:19;;;;;;;12.88;4.30;;;25.20;99.90;;;;;;5054909;28;20525;-74
2023/03/11 11:57:46;;;;;;;8.65;1.95;;;24.60;99.90;;;;;;5054937;28;20032;-74
2023/03/11 12:00:20;;;;;;;5.70;1.52;;;25.10;99.90;;;;;;5055038;28;20025;-74
2023/03/11 12:03:10;;;;;;;11.65;2.20;;;23.90;99.90;;;;;;5055037;28;20025;-74
2023/03/11 12:05:49;;;;;;;5.40;1.50;;;23.20;99.90;;;;;;5055500;28;20025;-78
2023/03/11 12:08:25;;;;;;;7.20;2.10;;;21.90;90.90;;;;;;5055296;28;20130;-73
2023/03/11 12:11:07;;;;;;;11.93;1.98;;;21.20;94.20;;;;;;5056455;28;20021;-73
2023/03/11 12:14:01;;;;;;;10.20;4.63;;;20.70;88.00;;;;;;5055444;28;20071;-73
2023/03/11 12:16:56;;;;;;;10.65;1.92;;;20.50;86.40;;;;;;5070899;28;20021;-72
2023/03/11 12:19:33;;;;;;;8.57;1.83;;;20.70;92.90;;;;;;5068860;28;20025;-74
2023/03/11 12:22:18;;;;;;;11.70;2.10;;;;;;;;;;5061186;28;20021;-75
2023/03/11 12:25:02;;;;;;;8.55;2.13;;;;;;;;;;5054766;28;20025;-73
2023/03/11 12:27:34;;;;;;;6.30;1.50;;;;;;;;;;5054399;28;20033;-73
2023/03/11 12:30:06;;;;;;;9.32;1.60;;;;;;;;;;5054112;28;20068;-73
2023/03/11 12:32:43;;;;;;;6.72;2.05;;;;;;;;;;5054266;28;20028;-73
2023/03/11 12:35:20;;;;;;;9.43;1.80;;;;;;;;;;5054200;28;20089;-72
2023/03/11 12:37:54;;;;;;;13.70;2.30;;;;;;;;;;5054347;28;20028;-72
2023/03/11 12:40:38;;;;;;;6.88;1.80;;;;;;;;;;5054252;28;20017;-73
2023/03/11 12:43:04;;;;;;;6.72;1.58;;;;;;;;;;5053822;28;20029;-72
2023/03/11 12:45:47;;;;;;;11.52;3.72;;;;;;;;;;5053766;28;20048;-75
2023/03/11 12:48:33;;;;;;;7.30;1.38;;;;;;;;;;5054205;28;20490;-75
2023/03/11 12:50:59;;;;;;;6.78;1.50;;;;;;;;;;5054089;28;20029;-73
2023/03/11 12:53:43;;;;;;;6.65;1.45;;;;;;;;;;5053625;28;20398;-74
2023/03/11 12:56:09;;;;;;;10.67;1.03;;;;;;;;;;5053691;28;20025;-74
2023/03/11 12:58:45;;;;;;;9.65;1.52;;;;;;;;;;5053323;28;20032;-75
2023/03/11 13:01:17;;;;;;;7.78;1.25;;;;;;;;;;5053646;28;20021;-72
2023/03/11 13:03:46;;;;;;;10.57;1.70;;;;;;;;;;5053626;28;20077;-73
2023/03/11 13:06:18;;;;;;;8.07;1.40;;;;;;;;;;5053812;28;20040;-76
2023/03/11 13:08:55;;;;;;;6.53;1.55;;;;;;;;;;5053847;28;20020;-76
2023/03/11 13:11:33;;;;;;;4.57;1.10;;;;;;;;;;5053306;28;20033;-76
2023/03/11 13:14:17;;;;;;;4.75;1.08;;;;;;;;;;5053548;28;20036;-75
2023/03/11 13:16:44;;;;;;;6.73;1.63;;;;;;;;;;5053380;28;20032;-75
2023/03/11 13:19:42;;;;;;;6.47;1.30;;;;;;;;;;5053519;28;20104;-76
2023/03/11 13:22:28;;;;;;;5.57;1.77;;;;;;;;;;5041043;28;20033;-76
2023/03/11 13:24:54;;;;;;;6.68;1.40;;;;;;;;;;5053540;28;20028;-75
2023/03/11 13:27:26;;;;;;;5.28;0.98;;;;;;;;;;5053277;28;20378;-75
2023/03/11 13:29:56;;;;;;;12.25;4.18;;;;;;;;;;5053636;28;20021;-78
2023/03/11 13:32:34;;;;;;;7.20;1.27;;;;;;;;;;5052913;28;20029;-74
2023/03/11 13:35:19;;;;;;;6.93;1.30;;;;;;;;;;5053221;28;20370;-74
2023/03/11 13:38:05;;;;;;;5.20;1.30;;;;;;;;;;5053342;28;20455;-73
2023/03/11 13:40:33;;;;;;;6.28;0.98;;;;;;;;;;5053490;28;20025;-76
2023/03/11 13:43:04;;;;;;;4.28;1.05;;;;;;;;;;5053453;28;20024;-75
2023/03/11 13:45:30;;;;;;;8.73;1.30;;;;;;;;;;5053271;28;20060;-77
2023/03/11 13:47:58;;;;;;;11.52;1.60;;;;;;;;;;5054553;28;20035;-72
2023/03/11 13:50:27;;;;;;;11.27;1.95;;;;;;;;;;5053672;28;20025;-74
2023/03/11 13:52:54;;;;;;;6.40;1.25;;;;;;;;;;5053609;28;20025;-75
2023/03/11 13:55:20;;;;;;;6.43;1.15;;;;;;;;;;5055006;28;20025;-74
2023/03/11 13:58:09;;;;;;;5.30;1.40;;;;;;;;;;5052737;28;20033;-76
2023/03/11 14:00:35;;;;;;;11.85;1.20;;;;;;;;;;5052633;28;20098;-75
2023/03/11 14:03:03;;;;;;;7.00;1.15;;;;;;;;;;5054459;28;20022;-79
2023/03/11 14:05:33;;;;;;;8.60;1.63;;;;;;;;;;5055760;28;20552;-77
2023/03/11 14:08:17;;;;;;;6.07;1.08;;;;;;;;;;5056385;28;20068;-76
2023/03/11 14:10:51;;;;;;;8.77;1.20;;;;;;;;;;5056066;28;20028;-76
2023/03/11 14:13:18;;;;;;;7.95;1.20;;;;;;;;;;5055109;28;20090;-82
2023/03/11 14:15:56;;;;;;;7.13;1.15;;;;;;;;;;5052255;28;20074;-76
2023/03/11 14:18:26;;;;;;;8.35;1.45;;;;;;;;;;5051886;28;20463;-77
2023/03/11 14:20:52;;;;;;;11.57;1.92;;;;;;;;;;5052279;28;20509;-76
2023/03/11 14:23:19;;;;;;;9.48;1.20;;;;;;;;;;5053836;28;20029;-77